Time;durP1;ratioP1;P1;durP2;ratioP2;P2;SDS_P1;SDS_P2;PMS_P1;PMS_P2;Temp;Humidity;BMP_temperature;BMP_pressure;BME280_temperature;BME280_humidity;BME280_pressure;Samples;Min_cycle;Max_cycle;Signal;HPM_P1;HPM_P2
2021/09/27 00:00:16;;;;;;;22.07;13.00;;;;;;;9.26;77.78;101005.63;1814010;79;25816;-65
2021/09/27 00:02:45;;;;;;;26.12;12.40;;;;;;;9.24;77.82;101014.52;1814120;79;25628;-65
2021/09/27 00:05:16;;;;;;;22.50;12.33;;;;;;;9.22;77.86;101003.21;1814020;79;27520;-65
2021/09/27 00:07:43;;;;;;;18.55;10.43;;;;;;;9.21;77.89;100998.92;1813981;79;25552;-65
2021/09/27 00:10:15;;;;;;;20.35;10.58;;;;;;;9.20;77.91;101001.90;1814017;79;25607;-65
2021/09/27 00:12:43;;;;;;;19.12;10.95;;;;;;;9.21;77.99;101007.53;1813452;78;25642;-65
2021/09/27 00:15:15;;;;;;;23.92;10.68;;;;;;;9.21;78.08;101002.14;1814068;79;25379;-66
2021/09/27 00:17:42;;;;;;;20.45;10.82;;;;;;;9.20;78.09;101001.90;1814068;79;27474;-66
2021/09/27 00:20:10;;;;;;;20.68;10.32;;;;;;;9.20;78.23;101008.64;1813887;79;25754;-65
2021/09/27 00:22:38;;;;;;;21.68;11.08;;;;;;;9.19;78.21;101007.02;1730527;77;25662;-66
2021/09/27 00:25:08;;;;;;;19.12;10.15;;;;;;;9.17;78.15;101008.65;1704986;84;25542;-65
2021/09/27 00:27:34;;;;;;;18.87;10.08;;;;;;;9.15;77.97;101007.58;1736182;82;25601;-65
2021/09/27 00:30:01;;;;;;;18.73;10.30;;;;;;;9.14;78.01;101003.28;1714168;82;27545;-65
2021/09/27 00:32:28;;;;;;;18.30;10.35;;;;;;;9.10;78.08;100999.52;1792873;79;25810;-66
2021/09/27 00:34:55;;;;;;;18.65;9.35;;;;;;;9.11;78.04;101000.34;1771727;80;25507;-66
2021/09/27 00:37:25;;;;;;;17.50;9.85;;;;;;;9.10;78.08;100991.98;1793394;79;26124;-65
2021/09/27 00:39:51;;;;;;;20.40;10.10;;;;;;;9.07;78.22;100986.58;1793406;79;25605;-65
2021/09/27 00:42:18;;;;;;;17.05;9.88;;;;;;;9.07;78.27;100987.14;1764670;80;27458;-65
2021/09/27 00:44:44;;;;;;;21.95;10.00;;;;;;;9.05;78.08;100992.81;1764997;81;27313;-65
2021/09/27 00:47:11;;;;;;;16.82;9.45;;;;;;;9.03;77.96;100985.55;1774354;80;25613;-65
2021/09/27 00:49:39;;;;;;;18.90;9.78;;;;;;;9.02;78.01;100987.97;1779797;80;25493;-65
2021/09/27 00:52:06;;;;;;;17.82;9.43;;;;;;;9.01;77.88;100992.30;1742160;82;25378;-64
2021/09/27 00:54:37;;;;;;;16.40;9.50;;;;;;;9.00;78.07;100996.09;1789811;80;28019;-65
2021/09/27 00:57:12;;;;;;;17.55;8.60;;;;;;;8.98;78.14;100989.63;1789734;80;25667;-65
2021/09/27 00:59:42;;;;;;;17.70;9.08;;;;;;;8.96;78.24;100984.52;1772514;80;25406;-64
2021/09/27 01:02:11;;;;;;;18.90;9.28;;;;;;;8.96;78.58;100990.47;1776250;80;26369;-63
2021/09/27 01:04:40;;;;;;;17.87;8.80;;;;;;;8.95;77.98;100988.84;1734146;82;25605;-65
2021/09/27 01:07:23;;;;;;;17.42;9.55;;;;;;;8.93;78.04;100992.37;1742021;82;28183;-64
2021/09/27 01:10:19;;;;;;;21.77;10.03;;;;;;;8.92;78.45;100981.30;1789498;80;25426;-64
2021/09/27 01:13:21;;;;;;;22.35;9.48;;;;;;;8.90;78.73;100974.83;1785119;80;25514;-65
2021/09/27 01:16:14;;;;;;;17.90;8.93;;;;;;;8.89;78.57;100979.19;1789812;80;25611;-64
2021/09/27 01:19:26;;;;;;;18.25;9.00;;;;;;;8.85;78.52;100972.17;1769850;81;25612;-64
2021/09/27 01:22:09;;;;;;;16.82;8.45;;;;;;;8.83;78.49;100973.55;1765506;81;27499;-65
2021/09/27 01:24:53;;;;;;;14.50;8.83;;;;;;;8.81;78.35;100975.73;1759191;81;25886;-63
2021/09/27 01:27:50;;;;;;;19.17;9.33;;;;;;;8.78;78.62;100975.73;1759161;81;25361;-64
2021/09/27 01:30:59;;;;;;;18.77;9.40;;;;;;;8.76;78.77;100977.91;1759214;81;25968;-64
2021/09/27 01:33:46;;;;;;;15.78;7.95;;;;;;;8.73;78.91;100979.81;1759375;81;25444;-63
2021/09/27 01:36:47;;;;;;;18.12;8.35;;;;;;;8.72;78.80;100972.83;1759185;81;27467;-64
2021/09/27 01:39:24;;;;;;;14.18;8.38;;;;;;;8.69;79.05;100978.22;1759116;81;25665;-64
2021/09/27 01:42:11;;;;;;;13.15;8.70;;;;;;;8.67;78.65;100972.86;1689012;84;25679;-63
2021/09/27 01:44:57;;;;;;;18.90;8.30;;;;;;;8.67;79.22;100981.74;1711909;83;25649;-63
2021/09/27 01:47:29;;;;;;;14.05;8.05;;;;;;;8.67;79.27;100995.23;1689240;84;25492;-65
2021/09/27 01:50:13;;;;;;;20.15;8.80;;;;;;;8.65;79.15;100992.02;1689038;84;27573;-65
2021/09/27 01:52:59;;;;;;;14.73;8.08;;;;;;;8.65;79.31;100999.28;1689047;84;25835;-65
2021/09/27 01:55:40;;;;;;;14.03;8.10;;;;;;;8.63;79.33;100996.05;1699216;84;25551;-64
2021/09/27 01:58:15;;;;;;;14.85;8.40;;;;;;;8.62;79.43;100992.56;1746017;82;25635;-64
2021/09/27 02:00:50;;;;;;;15.50;7.35;;;;;;;8.60;79.34;100987.45;1745546;82;25662;-64
2021/09/27 02:03:37;;;;;;;16.62;8.18;;;;;;;8.55;79.22;100982.08;1746056;82;27727;-64
2021/09/27 02:06:24;;;;;;;11.88;6.95;;;;;;;8.53;79.22;100975.34;1737874;82;25766;-64
2021/09/27 02:09:12;;;;;;;14.00;7.30;;;;;;;8.49;79.33;100968.35;1733793;82;25482;-64
2021/09/27 02:11:43;;;;;;;12.95;6.50;;;;;;;8.49;79.47;100979.69;1718676;83;25777;-66
2021/09/27 02:14:21;;;;;;;13.95;6.95;;;;;;;8.47;79.43;100975.92;1718682;83;25697;-64
2021/09/27 02:17:05;;;;;;;14.68;7.15;;;;;;;8.48;79.52;100982.11;1665109;86;27483;-64
2021/09/27 02:20:10;;;;;;;14.33;7.58;;;;;;;8.47;79.30;100989.95;1686774;84;25667;-64
2021/09/27 02:22:42;;;;;;;16.20;7.05;;;;;;;8.42;79.31;100978.61;1688993;83;25643;-65
2021/09/27 02:25:23;;;;;;;12.47;7.30;;;;;;;8.41;79.16;100981.86;1683900;85;25606;-64
2021/09/27 02:27:52;;;;;;;13.65;6.83;;;;;;;8.39;79.25;100984.03;1683991;85;25677;-64
2021/09/27 02:30:24;;;;;;;11.95;6.60;;;;;;;8.37;79.04;100982.68;1660840;85;29066;-64
2021/09/27 02:33:02;;;;;;;10.55;6.62;;;;;;;8.34;79.00;100980.53;1681489;85;25678;-64
2021/09/27 02:35:40;;;;;;;9.25;5.87;;;;;;;8.31;78.93;100987.30;1683886;85;25456;-64
2021/09/27 02:38:17;;;;;;;9.33;5.40;;;;;;;8.29;78.96;100987.30;1683909;85;25774;-65
2021/09/27 02:40:55;;;;;;;10.88;6.72;;;;;;;8.28;79.30;100991.09;1683903;85;25501;-64
2021/09/27 02:43:21;;;;;;;12.33;5.83;;;;;;;8.26;79.57;100992.71;1683981;85;28175;-64
2021/09/27 02:45:49;;;;;;;11.60;6.05;;;;;;;8.25;79.63;100989.73;1683835;85;25793;-64
2021/09/27 02:48:38;;;;;;;10.23;5.80;;;;;;;8.24;79.52;100993.53;1732118;82;25634;-64
2021/09/27 02:51:05;;;;;;;11.03;5.85;;;;;;;8.23;79.66;100992.70;1741812;82;26129;-64
2021/09/27 02:53:32;;;;;;;10.50;5.85;;;;;;;8.22;79.79;100994.33;1755060;80;25638;-65
2021/09/27 02:56:22;;;;;;;14.53;5.87;;;;;;;8.20;79.73;100995.15;1768236;80;27473;-65
2021/09/27 02:59:38;;;;;;;12.80;6.00;;;;;;;8.18;79.79;100994.08;1748953;80;25601;-64
2021/09/27 03:03:01;;;;;;;11.28;6.80;;;;;;;8.18;80.06;100990.58;1748729;82;25588;-63
2021/09/27 03:05:50;;;;;;;14.58;7.62;;;;;;;8.18;80.18;100996.77;1748734;82;25639;-65
2021/09/27 03:08:54;;;;;;;12.53;6.67;;;;;;;8.17;80.32;100992.48;1748730;82;25455;-66
2021/09/27 03:11:47;;;;;;;10.32;6.62;;;;;;;8.17;80.35;100993.00;1748617;82;27534;-66
2021/09/27 03:14:45;;;;;;;12.65;6.50;;;;;;;8.16;80.56;100993.55;1748603;81;25420;-65
2021/09/27 03:17:32;;;;;;;12.98;7.50;;;;;;;8.16;80.76;100996.25;1748728;82;25448;-64
2021/09/27 03:20:16;;;;;;;12.70;7.65;;;;;;;8.17;80.84;100996.52;1689936;84;25572;-63
2021/09/27 03:22:50;;;;;;;14.07;7.37;;;;;;;8.17;80.89;100989.78;1688485;82;25473;-66
2021/09/27 03:25:54;;;;;;;15.20;7.80;;;;;;;8.17;80.99;100996.52;1702101;84;29848;-66
2021/09/27 03:28:52;;;;;;;11.40;6.83;;;;;;;8.18;81.34;100996.77;1702045;84;25653;-65
2021/09/27 03:31:29;;;;;;;13.85;6.83;;;;;;;8.21;81.51;101002.16;1701862;84;25595;-65
2021/09/27 03:34:26;;;;;;;12.28;7.40;;;;;;;8.22;81.72;100991.11;1702216;84;25592;-64
2021/09/27 03:37:01;;;;;;;12.65;6.55;;;;;;;8.22;81.72;100995.16;1702236;84;25515;-65
2021/09/27 03:39:41;;;;;;;13.80;7.42;;;;;;;8.24;81.83;100998.92;1678492;84;28554;-65
2021/09/27 03:42:21;;;;;;;12.58;7.17;;;;;;;8.22;81.89;100999.20;1702150;84;25932;-64
2021/09/27 03:44:53;;;;;;;;;;;;;;;8.24;81.96;100993.53;1704830;84;25531;-65
2021/09/27 03:47:43;;;;;;;23.60;13.58;;;;;;;8.25;82.03;100996.48;1702112;84;25721;-65
2021/09/27 03:50:23;;;;;;;54.23;31.45;;;;;;;8.26;82.20;100989.19;1702397;84;25599;-65
2021/09/27 03:53:06;;;;;;;28.90;13.85;;;;;;;8.27;82.23;100990.81;1701387;84;28140;-65
2021/09/27 03:55:53;;;;;;;17.62;10.45;;;;;;;8.28;82.50;100991.09;1701935;84;25591;-66
2021/09/27 03:58:46;;;;;;;30.62;17.95;;;;;;;8.28;82.29;100989.74;1744811;81;25471;-66
2021/09/27 04:01:23;;;;;;;18.55;9.23;;;;;;;8.28;82.35;100987.05;1656182;86;25574;-65
2021/09/27 04:04:02;;;;;;;15.23;7.97;;;;;;;8.28;82.30;100987.05;1634710;86;25771;-65
2021/09/27 04:06:58;;;;;;;29.10;15.53;;;;;;;8.29;82.22;100987.30;1657096;86;27567;-66
2021/09/27 04:09:49;;;;;;;20.68;10.90;;;;;;;8.29;82.28;100981.91;1657045;86;25569;-66
2021/09/27 04:12:35;;;;;;;17.48;9.33;;;;;;;8.27;82.37;100976.78;1657053;86;25575;-66
2021/09/27 04:15:35;;;;;;;17.10;8.60;;;;;;;8.28;82.43;100982.45;1657104;86;25737;-65
2021/09/27 04:18:25;;;;;;;13.72;8.08;;;;;;;8.28;82.55;100985.15;1657047;86;25506;-65
2021/09/27 04:20:57;;;;;;;;;;;;;;;8.28;82.59;100981.66;1659639;86;26903;-65
2021/09/27 04:23:53;;;;;;;66.25;38.28;;;;;;;8.28;82.70;100982.45;1687248;84;25903;-65
2021/09/27 04:26:47;;;;;;;24.43;13.83;;;;;;;8.27;82.59;100972.75;1665457;86;25731;-64
2021/09/27 04:29:37;;;;;;;13.68;8.30;;;;;;;8.26;82.55;100971.15;1665399;86;25703;-66
2021/09/27 04:32:43;;;;;;;15.95;8.45;;;;;;;8.26;82.50;100977.89;1664645;85;26068;-66
2021/09/27 04:35:50;;;;;;;15.28;8.15;;;;;;;8.27;82.59;100973.30;1664718;85;27560;-66
2021/09/27 04:38:18;;;;;;;20.08;8.98;;;;;;;8.25;82.78;100972.77;1730934;82;25463;-66
2021/09/27 04:41:05;;;;;;;23.52;12.10;;;;;;;8.25;82.75;100969.52;1733657;82;25569;-66
2021/09/27 04:43:48;;;;;;;14.33;9.03;;;;;;;8.25;83.17;100965.48;1733132;82;26135;-66
2021/09/27 04:46:50;;;;;;;18.10;8.90;;;;;;;8.27;83.38;100975.98;1733756;82;25232;-67
2021/09/27 04:49:37;;;;;;;12.60;7.08;;;;;;;8.27;83.31;100975.44;1733976;82;27496;-66
2021/09/27 04:52:31;;;;;;;13.13;7.65;;;;;;;8.28;83.21;100977.06;1666230;86;25471;-65
2021/09/27 04:55:15;;;;;;;14.00;6.67;;;;;;;8.29;83.02;100973.81;1665043;86;25791;-65
2021/09/27 04:58:13;;;;;;;16.15;7.87;;;;;;;8.28;83.08;100974.38;1697767;83;25850;-66
2021/09/27 05:00:57;;;;;;;16.12;7.40;;;;;;;8.29;83.25;100985.42;1659220;86;25501;-66
2021/09/27 05:03:38;;;;;;;14.07;7.85;;;;;;;8.32;83.27;100984.05;1612079;87;27891;-66
2021/09/27 05:06:25;;;;;;;14.78;8.08;;;;;;;8.34;83.42;100987.27;1658870;86;25828;-67
2021/09/27 05:09:25;;;;;;;13.48;8.00;;;;;;;8.37;83.48;100989.42;1658813;86;25476;-65
2021/09/27 05:12:19;;;;;;;14.13;8.00;;;;;;;8.39;83.57;100981.86;1658427;86;25634;-67
2021/09/27 05:14:57;;;;;;;15.18;8.20;;;;;;;8.46;83.87;100986.98;1658931;86;25673;-68
2021/09/27 05:17:59;;;;;;;13.30;7.60;;;;;;;8.51;84.12;100983.73;1658938;86;27799;-68
2021/09/27 05:20:47;;;;;;;14.35;8.35;;;;;;;8.58;84.24;100989.63;1658837;86;25472;-68
2021/09/27 05:23:31;;;;;;;14.38;7.70;;;;;;;8.66;84.41;100995.51;1654212;86;25633;-69
2021/09/27 05:26:12;;;;;;;20.48;8.98;;;;;;;8.72;84.46;100991.16;1652123;86;25545;-67
2021/09/27 05:29:07;;;;;;;14.85;7.47;;;;;;;8.78;84.47;100996.80;1653773;85;25501;-66
2021/09/27 05:31:54;;;;;;;20.70;8.95;;;;;;;8.87;84.76;100995.66;1681914;85;27653;-66
2021/09/27 05:34:31;;;;;;;19.77;9.18;;;;;;;8.98;85.09;100997.17;1680432;85;25607;-66
2021/09/27 05:37:15;;;;;;;21.35;9.33;;;;;;;9.12;85.56;100992.50;1697760;82;25532;-67
2021/09/27 05:40:11;;;;;;;15.85;8.70;;;;;;;9.23;85.68;100991.34;1779161;80;25487;-67
2021/09/27 05:43:11;;;;;;;18.85;8.88;;;;;;;9.35;85.76;100996.37;1814077;78;25636;-67
2021/09/27 05:46:03;;;;;;;19.40;8.25;;;;;;;9.49;85.78;101000.02;1806998;79;27536;-67
2021/09/27 05:48:47;;;;;;;15.50;7.10;;;;;;;9.62;85.52;101004.48;1785119;79;25947;-66
2021/09/27 05:51:28;;;;;;;14.63;7.75;;;;;;;9.71;85.12;101010.34;1783490;79;25787;-66
2021/09/27 05:54:33;;;;;;;15.50;7.28;;;;;;;9.83;85.11;101007.80;1801157;79;25699;-67
2021/09/27 05:57:31;;;;;;;16.60;7.65;;;;;;;9.89;84.75;101010.16;1773852;78;25623;-66
2021/09/27 06:00:19;;;;;;;16.70;7.30;;;;;;;10.00;84.74;101004.09;1786519;78;27477;-67
2021/09/27 06:03:13;;;;;;;16.35;8.38;;;;;;;10.16;85.13;101010.13;1733300;82;25754;-67
2021/09/27 06:06:10;;;;;;;16.20;7.95;;;;;;;10.35;85.84;101008.87;1767712;80;25378;-67
2021/09/27 06:09:11;;;;;;;17.40;7.78;;;;;;;10.59;85.71;101012.87;1774972;80;25612;-66
2021/09/27 06:11:58;;;;;;;16.57;8.40;;;;;;;10.84;85.96;101015.78;1635733;87;25762;-67
2021/09/27 06:14:26;;;;;;;28.57;14.20;;;;;;;11.12;86.20;101014.55;1636107;87;27525;-67
2021/09/27 06:17:30;;;;;;;26.33;9.60;;;;;;;11.40;86.60;101014.63;1646607;86;25662;-67
2021/09/27 06:20:11;;;;;;;15.20;7.45;;;;;;;11.64;85.83;101015.05;1618732;88;25607;-67
2021/09/27 06:22:58;;;;;;;16.35;6.85;;;;;;;11.94;86.04;101017.22;1616592;88;25538;-67
2021/09/27 06:25:34;;;;;;;16.82;7.83;;;;;;;12.22;85.58;101012.35;1608083;89;25479;-68
2021/09/27 06:28:18;;;;;;;15.78;7.10;;;;;;;12.51;85.64;101014.73;1589327;90;29430;-67
2021/09/27 06:31:00;;;;;;;9.58;5.20;;;;;;;12.78;84.60;101011.71;1598635;89;25663;-66
2021/09/27 06:33:38;;;;;;;15.03;6.28;;;;;;;13.03;83.94;101015.76;1584794;90;26005;-66
2021/09/27 06:36:10;;;;;;;12.00;5.50;;;;;;;13.29;83.64;101015.94;1596765;89;27963;-66
2021/09/27 06:38:39;;;;;;;14.13;5.22;;;;;;;13.54;82.99;101013.17;1585200;90;25625;-66
2021/09/27 06:41:12;;;;;;;10.78;5.28;;;;;;;13.79;82.05;101020.40;1572609;90;27688;-67
2021/09/27 06:43:39;;;;;;;13.75;5.53;;;;;;;14.04;82.31;101024.92;1570484;91;25671;-67
2021/09/27 06:46:05;;;;;;;12.82;5.70;;;;;;;14.32;81.49;101015.41;1616364;88;25622;-66
2021/09/27 06:48:34;;;;;;;15.88;6.85;;;;;;;14.55;80.42;101011.20;1656209;84;26401;-66
2021/09/27 06:51:01;;;;;;;12.93;5.92;;;;;;;14.80;79.73;101011.59;1709257;83;25554;-66
2021/09/27 06:53:30;;;;;;;7.12;4.30;;;;;;;15.05;79.37;101008.59;1687815;85;28178;-67
2021/09/27 06:58:47;;;;;;;14.15;5.15;;;;;;;15.46;77.20;101009.98;1592114;88;25709;-66
2021/09/27 07:01:14;;;;;;;9.63;4.15;;;;;;;15.72;75.76;101013.22;1557471;90;25528;-66
2021/09/27 07:03:40;;;;;;;10.38;4.53;;;;;;;15.96;76.37;101018.92;1579069;90;25516;-66
2021/09/27 07:06:07;;;;;;;7.28;4.37;;;;;;;16.25;75.44;101022.22;1603072;89;27601;-66
2021/09/27 07:08:33;;;;;;;13.40;4.75;;;;;;;16.55;75.20;101019.48;1607536;87;25727;-66
2021/09/27 07:11:00;;;;;;;11.03;4.58;;;;;;;16.86;74.34;101010.70;1607713;89;25516;-66
2021/09/27 07:13:27;;;;;;;6.67;3.35;;;;;;;17.18;74.12;101004.45;1607642;89;26128;-66
2021/09/27 07:15:53;;;;;;;9.33;3.87;;;;;;;17.50;72.64;101012.17;1607776;89;25474;-66
2021/09/27 07:18:20;;;;;;;8.80;3.75;;;;;;;17.76;71.02;101013.26;1607529;89;27536;-66
2021/09/27 07:20:47;;;;;;;11.65;4.05;;;;;;;17.97;70.01;101006.92;1607419;89;26274;-66
2021/09/27 07:23:14;;;;;;;6.87;3.62;;;;;;;18.15;69.31;101004.73;1620918;87;25642;-66
2021/09/27 07:25:42;;;;;;;8.68;4.15;;;;;;;18.37;69.06;101003.45;1631675;85;25648;-66
2021/09/27 07:28:09;;;;;;;8.38;3.70;;;;;;;18.65;68.97;100998.05;1631683;87;25630;-66
2021/09/27 07:30:37;;;;;;;11.00;4.70;;;;;;;18.90;67.70;100997.98;1631602;87;28072;-65
2021/09/27 07:33:05;;;;;;;11.73;5.08;;;;;;;19.20;67.37;100997.85;1631540;87;25821;-66
2021/09/27 07:35:32;;;;;;;10.23;5.12;;;;;;;19.52;66.29;100997.91;1631605;85;25586;-66
2021/09/27 07:37:59;;;;;;;8.50;4.40;;;;;;;19.89;65.14;100999.65;1631590;85;25691;-66
2021/09/27 07:40:31;;;;;;;6.80;4.30;;;;;;;20.12;64.11;100995.08;1623222;86;25494;-66
2021/09/27 07:42:58;;;;;;;10.25;4.30;;;;;;;20.42;62.59;100999.29;1685471;85;27489;-66
2021/09/27 07:45:33;;;;;;;7.65;3.70;;;;;;;20.62;61.83;100995.44;1685408;85;25641;-66
2021/09/27 07:47:57;;;;;;;6.45;4.08;;;;;;;21.00;61.16;100993.05;1685688;84;25468;-66
2021/09/27 07:50:24;;;;;;;7.58;3.60;;;;;;;21.29;61.26;100993.59;1685468;85;25570;-66
2021/09/27 07:52:51;;;;;;;7.08;3.42;;;;;;;21.66;60.09;100988.94;1685537;85;25399;-65
2021/09/27 07:55:18;;;;;;;9.58;3.45;;;;;;;21.95;59.16;100993.77;1685415;85;27474;-65
2021/09/27 07:57:45;;;;;;;6.12;3.27;;;;;;;22.29;58.59;100993.12;1681545;84;25537;-66
2021/09/27 08:00:14;;;;;;;6.37;3.02;;;;;;;22.64;57.67;100989.23;1684053;84;25584;-66
2021/09/27 08:02:43;;;;;;;5.30;2.70;;;;;;;22.89;56.66;100996.44;1678131;85;25457;-66
2021/09/27 08:05:14;;;;;;;7.70;2.25;;;;;;;23.13;56.21;100997.91;1678373;84;25412;-66
2021/09/27 08:07:41;;;;;;;4.25;2.45;;;;;;;23.28;54.98;100994.13;1678202;85;29642;-66
2021/09/27 08:10:10;;;;;;;4.70;2.65;;;;;;;23.42;54.57;100992.69;1678007;84;25762;-66
2021/09/27 08:12:37;;;;;;;5.95;2.17;;;;;;;23.58;53.18;101000.14;1678235;84;34699;-66
2021/09/27 08:15:12;;;;;;;4.33;2.22;;;;;;;23.30;51.23;101000.66;1677991;85;25528;-67
2021/09/27 08:17:39;;;;;;;4.78;2.58;;;;;;;23.16;51.38;100995.00;1678010;85;25454;-67
2021/09/27 08:20:10;;;;;;;7.62;2.20;;;;;;;23.18;51.48;100996.79;1678075;85;27517;-67
2021/09/27 08:22:37;;;;;;;3.40;1.98;;;;;;;23.37;52.44;100998.55;1677729;85;25714;-67
2021/09/27 08:25:07;;;;;;;2.95;1.90;;;;;;;23.62;50.96;100993.27;1677499;85;25544;-67
2021/09/27 08:27:33;;;;;;;3.45;2.50;;;;;;;23.59;50.01;100992.64;1678033;84;25737;-67
2021/09/27 08:29:59;;;;;;;4.55;2.08;;;;;;;23.66;49.58;100992.09;1678098;85;25626;-67
2021/09/27 08:32:26;;;;;;;4.83;2.08;;;;;;;23.71;50.09;100992.34;1678080;84;27669;-67
2021/09/27 08:34:53;;;;;;;3.42;2.17;;;;;;;23.83;49.91;100993.45;1677984;85;25554;-67
2021/09/27 08:37:21;;;;;;;3.08;1.70;;;;;;;23.96;48.26;100989.02;1678042;85;25634;-67
2021/09/27 08:39:49;;;;;;;9.80;2.10;;;;;;;23.98;48.85;100988.05;1678094;85;25622;-67
2021/09/27 08:42:24;;;;;;;4.70;1.98;;;;;;;24.29;49.08;100984.48;1656756;85;25478;-67
2021/09/27 08:45:01;;;;;;;4.85;2.40;;;;;;;24.52;46.69;100993.88;1676644;85;27469;-67
2021/09/27 08:48:02;;;;;;;7.28;2.25;;;;;;;24.68;47.72;100989.45;1664386;85;25745;-67
2021/09/27 08:50:41;;;;;;;4.03;1.65;;;;;;;24.87;46.78;100991.09;1678059;84;25409;-66
2021/09/27 08:53:12;;;;;;;3.17;1.77;;;;;;;24.89;45.86;100992.30;1678240;85;25578;-66
2021/09/27 08:55:40;;;;;;;4.28;1.62;;;;;;;24.94;45.14;100991.11;1675591;85;25449;-66
2021/09/27 08:58:48;;;;;;;5.20;1.80;;;;;;;24.94;45.17;100996.07;1691198;84;28237;-66
2021/09/27 09:01:19;;;;;;;2.75;1.60;;;;;;;25.04;44.96;100995.88;1695928;83;25480;-66
2021/09/27 09:04:03;;;;;;;4.40;1.70;;;;;;;25.12;44.35;101005.01;1693161;84;25610;-66
2021/09/27 09:06:40;;;;;;;2.40;1.67;;;;;;;25.13;44.06;100996.89;1693111;84;25578;-66
2021/09/27 09:09:17;;;;;;;3.42;1.80;;;;;;;25.31;44.28;101000.52;1693094;83;25565;-67
2021/09/27 09:12:01;;;;;;;3.45;1.95;;;;;;;25.43;43.37;100996.58;1693166;84;27464;-67
2021/09/27 09:14:35;;;;;;;4.33;2.10;;;;;;;25.42;43.74;100990.86;1693053;84;25567;-67
2021/09/27 09:17:16;;;;;;;4.58;2.00;;;;;;;25.72;44.09;100995.20;1693118;84;25523;-66
2021/09/27 09:19:43;;;;;;;2.95;1.55;;;;;;;26.11;43.79;100994.41;1693103;84;26141;-67
2021/09/27 09:22:18;;;;;;;3.58;1.60;;;;;;;26.26;42.80;100985.47;1693136;84;25386;-66
2021/09/27 09:24:46;;;;;;;2.58;1.70;;;;;;;26.30;42.57;100982.69;1689239;84;27517;-66
2021/09/27 09:27:14;;;;;;;1.40;1.30;;;;;;;26.35;42.37;100982.27;1692973;84;27244;-67
2021/09/27 09:29:44;;;;;;;4.27;1.67;;;;;;;26.64;42.39;100983.77;1693280;84;25539;-67
2021/09/27 09:32:29;;;;;;;3.30;1.60;;;;;;;26.82;41.10;100979.53;1697052;84;25481;-67
2021/09/27 09:35:22;;;;;;;3.05;1.55;;;;;;;26.83;40.58;100985.87;1673237;84;25451;-67
2021/09/27 09:38:11;;;;;;;2.35;1.80;;;;;;;26.68;40.03;100978.80;1693170;83;28164;-67
2021/09/27 09:40:48;;;;;;;3.42;1.85;;;;;;;26.72;40.41;100983.76;1693060;84;25552;-67
2021/09/27 09:43:26;;;;;;;4.42;1.70;;;;;;;26.52;39.76;100975.87;1693083;84;25430;-68
2021/09/27 09:46:04;;;;;;;3.17;1.47;;;;;;;26.65;40.12;100977.64;1692731;84;25556;-67
2021/09/27 09:48:31;;;;;;;3.15;1.52;;;;;;;26.63;38.43;100973.88;1693044;83;25440;-67
2021/09/27 09:51:20;;;;;;;2.25;1.77;;;;;;;26.28;39.15;100974.16;1693068;84;29607;-67
2021/09/27 09:54:08;;;;;;;1.72;1.50;;;;;;;26.19;39.37;100974.41;1693159;84;25458;-67
2021/09/27 09:56:39;;;;;;;2.87;1.37;;;;;;;26.34;38.57;100970.98;1668247;84;25641;-68
2021/09/27 09:59:31;;;;;;;6.08;1.62;;;;;;;26.40;38.46;100970.77;1693043;84;25621;-67
2021/09/27 10:02:00;;;;;;;3.62;1.50;;;;;;;26.25;38.14;100967.25;1696025;84;25657;-67
2021/09/27 10:04:42;;;;;;;;;;;;;;;26.04;38.62;100962.55;1703899;84;27268;-66
2021/09/27 10:07:14;;;;;;;2.95;1.35;;;;;;;26.14;39.16;100956.80;1697485;84;25515;-66
2021/09/27 10:10:09;;;;;;;2.55;1.25;;;;;;;26.41;38.67;100952.95;1696240;84;25586;-66
2021/09/27 10:12:51;;;;;;;6.53;1.82;;;;;;;26.61;39.40;100959.60;1697525;84;25575;-64
2021/09/27 10:15:35;;;;;;;3.40;1.40;;;;;;;26.66;38.64;100962.56;1697601;84;25626;-65
2021/09/27 10:18:31;;;;;;;3.62;1.42;;;;;;;26.98;38.92;100958.83;1697564;84;27486;-66
2021/09/27 10:21:10;;;;;;;3.55;1.77;;;;;;;27.15;37.89;100953.75;1675383;84;25569;-67
2021/09/27 10:23:45;;;;;;;2.37;1.40;;;;;;;27.07;37.07;100956.38;1683392;84;25406;-67
2021/09/27 10:26:32;;;;;;;5.20;1.70;;;;;;;27.06;36.62;100950.66;1686933;85;25645;-66
2021/09/27 10:29:13;;;;;;;2.58;1.50;;;;;;;26.93;37.37;100950.33;1686902;85;25603;-66
2021/09/27 10:31:44;;;;;;;5.35;1.80;;;;;;;26.87;37.07;100942.25;1685534;84;27524;-66
2021/09/27 10:34:16;;;;;;;2.65;1.30;;;;;;;26.92;37.22;100948.77;1686774;84;25667;-67
2021/09/27 10:36:56;;;;;;;4.95;1.75;;;;;;;26.74;37.09;100948.85;1692253;84;25603;-67
2021/09/27 10:39:23;;;;;;;;;;;;;;;26.80;37.41;100950.59;1694943;84;25817;-64
2021/09/27 10:41:58;;;;;;;4.40;1.45;;;;;;;26.92;36.38;100950.16;1667491;84;25615;-67
2021/09/27 10:44:41;;;;;;;5.05;1.55;;;;;;;26.92;37.97;100948.77;1692309;84;27509;-66
2021/09/27 10:47:16;;;;;;;5.50;1.80;;;;;;;27.19;37.52;100953.15;1692269;84;25567;-66
2021/09/27 10:50:01;;;;;;;3.55;1.47;;;;;;;27.21;36.56;100941.64;1692345;84;25638;-65
2021/09/27 10:52:52;;;;;;;3.75;1.45;;;;;;;27.17;36.49;100945.80;1692303;84;25623;-65
2021/09/27 10:55:48;;;;;;;3.95;1.50;;;;;;;27.14;36.19;100936.11;1692250;84;25395;-65
2021/09/27 10:58:41;;;;;;;5.53;1.42;;;;;;;26.98;36.47;100938.02;1691517;84;27906;-65
2021/09/27 11:01:12;;;;;;;2.87;1.40;;;;;;;27.28;36.33;100933.85;1627996;88;25626;-66
2021/09/27 11:03:52;;;;;;;3.75;1.42;;;;;;;27.29;36.23;100925.12;1628131;88;25519;-66
2021/09/27 11:06:40;;;;;;;3.45;1.40;;;;;;;27.35;36.67;100931.05;1628057;88;25668;-67
2021/09/27 11:09:18;;;;;;;4.17;1.60;;;;;;;27.54;36.30;100931.08;1624729;88;25635;-65
2021/09/27 11:12:01;;;;;;;6.92;1.62;;;;;;;27.76;35.83;100927.50;1618676;88;27297;-66
2021/09/27 11:14:42;;;;;;;2.60;1.60;;;;;;;27.79;35.77;100932.23;1611760;88;25897;-65
2021/09/27 11:17:20;;;;;;;5.53;1.72;;;;;;;28.10;36.24;100930.34;1618654;88;25518;-65
2021/09/27 11:20:16;;;;;;;5.62;2.47;;;;;;;28.43;35.58;100927.95;1618807;88;26013;-64
2021/09/27 11:22:56;;;;;;;3.45;1.50;;;;;;;28.54;35.03;100933.98;1618721;88;25604;-65
2021/09/27 11:25:28;;;;;;;4.25;1.77;;;;;;;28.60;34.57;100935.13;1616144;88;27334;-66
2021/09/27 11:28:19;;;;;;;4.30;1.52;;;;;;;28.70;34.61;100930.02;1618624;88;25817;-66
2021/09/27 11:31:09;;;;;;;5.03;1.60;;;;;;;28.60;33.81;100930.34;1614432;88;25640;-66
2021/09/27 11:33:41;;;;;;;4.15;1.90;;;;;;;28.46;33.55;100926.34;1616307;88;25628;-66
2021/09/27 11:36:22;;;;;;;2.37;1.30;;;;;;;28.38;33.80;100923.46;1618223;88;25752;-66
2021/09/27 11:39:09;;;;;;;3.67;1.60;;;;;;;28.50;33.20;100921.51;1672974;85;27460;-66
2021/09/27 11:41:41;;;;;;;3.42;1.30;;;;;;;28.41;33.28;100919.23;1672586;85;25395;-66
2021/09/27 11:44:26;;;;;;;4.15;1.22;;;;;;;28.62;33.24;100923.78;1670238;84;25695;-64
2021/09/27 11:47:11;;;;;;;3.27;1.45;;;;;;;28.70;32.93;100925.84;1670186;84;25591;-66
2021/09/27 11:50:09;;;;;;;3.35;1.52;;;;;;;28.67;32.91;100916.36;1669704;85;25630;-66
2021/09/27 11:53:09;;;;;;;2.42;1.40;;;;;;;28.86;33.01;100908.52;1669831;85;27282;-65
2021/09/27 11:55:44;;;;;;;2.77;1.40;;;;;;;29.06;32.88;100905.25;1670185;85;25438;-65
2021/09/27 11:58:31;;;;;;;3.22;1.40;;;;;;;29.20;32.98;100911.22;1670725;84;25635;-65
2021/09/27 12:01:06;;;;;;;3.33;1.62;;;;;;;29.26;32.51;100903.77;1672656;84;25624;-66
2021/09/27 12:04:00;;;;;;;2.02;1.20;;;;;;;29.36;32.28;100909.77;1672667;85;25216;-65
2021/09/27 12:06:32;;;;;;;2.47;1.40;;;;;;;29.21;31.87;100900.23;1672488;85;27330;-65
2021/09/27 12:09:16;;;;;;;3.42;1.67;;;;;;;29.11;32.08;100897.61;1667057;84;25819;-66
2021/09/27 12:11:53;;;;;;;5.30;1.60;;;;;;;29.18;32.49;100897.52;1658126;85;25221;-65
2021/09/27 12:14:25;;;;;;;3.40;1.40;;;;;;;29.20;32.13;100892.30;1658031;85;25546;-64
2021/09/27 12:16:59;;;;;;;5.37;1.60;;;;;;;29.18;32.14;100891.33;1657660;86;25576;-63
2021/09/27 12:19:33;;;;;;;3.42;1.30;;;;;;;28.98;31.57;100890.44;1664946;85;28370;-65
2021/09/27 12:22:08;;;;;;;1.75;1.60;;;;;;;28.74;31.35;100883.46;1667112;85;25621;-65
2021/09/27 12:24:40;;;;;;;3.60;1.40;;;;;;;28.56;32.04;100877.36;1658308;85;25699;-66